KSBP/SBP METAR and TAF weather

Enter ICAO airport designator
Station Type Date Time Source
KSBP METAR 2021/03/08 11:56 UTC NOAA

KSBP 081156Z AUTO 00000KT 10SM OVC024 09/07 A3015 RMK AO2 SLP210 T00890067 10094 20072 53009 $


Station Type Date Time Source
KSBP Decoded METAR 2021/03/08 11:56 UTC NOAA

SAN LUIS OBISPO MC CHESNEY, CA, United States (KSBP) 35-14N 120-38W 59M
Mar 08, 2021 - 06:56 AM EST / 2021.03.08 1156 UTC
Wind: Calm:0
Visibility: 10 mile(s):0
Sky conditions: overcast
Temperature: 48.0 F (8.9 C)
Dew Point: 44.1 F (6.7 C)
Relative Humidity: 86%
Pressure (altimeter): 30.15 in. Hg (1020 hPa)
Pressure tendency: 0.03 inches (0.9 hPa) higher than three hours ago
ob: KSBP 081156Z AUTO 00000KT 10SM OVC024 09/07 A3015 RMK AO2 SLP210 T00890067 10094 20072 53009
cycle: 12

Station Type Date Time Source
KSBP TAF 2021/03/08 12:40 UTC NOAA

TAF KSBP 081138Z 0812/0912 VRB03KT P6SM OVC022
FM081800 31006KT P6SM SCT025 SCT200
FM082100 31012KT P6SM SCT200
FM090300 31006KT P6SM SCT200
FM090700 VRB03KT P6SM BKN040 OVC200

Example: see airport list